sensor_id;sensor_type;location;lat;lon;timestamp;P1;durP1;ratioP1;P2;durP2;ratioP2
36189;SDS011;22232;50.914;13.858;2022-08-19T00:01:26;20.50;;;15.55;;
36189;SDS011;22232;50.914;13.858;2022-08-19T00:04:00;18.63;;;15.70;;
36189;SDS011;22232;50.914;13.858;2022-08-19T00:06:30;19.63;;;16.45;;
36189;SDS011;22232;50.914;13.858;2022-08-19T00:08:58;19.42;;;15.85;;
36189;SDS011;22232;50.914;13.858;2022-08-19T00:11:27;23.33;;;16.50;;
36189;SDS011;22232;50.914;13.858;2022-08-19T00:13:55;18.77;;;15.63;;
36189;SDS011;22232;50.914;13.858;2022-08-19T00:16:24;23.40;;;16.52;;
36189;SDS011;22232;50.914;13.858;2022-08-19T00:18:53;21.55;;;16.75;;
36189;SDS011;22232;50.914;13.858;2022-08-19T00:21:23;21.77;;;16.85;;
36189;SDS011;22232;50.914;13.858;2022-08-19T00:23:53;25.95;;;17.88;;
36189;SDS011;22232;50.914;13.858;2022-08-19T00:26:25;30.30;;;21.63;;
36189;SDS011;22232;50.914;13.858;2022-08-19T00:28:54;24.65;;;20.75;;
36189;SDS011;22232;50.914;13.858;2022-08-19T00:31:22;29.70;;;23.63;;
36189;SDS011;22232;50.914;13.858;2022-08-19T00:33:49;27.83;;;21.50;;
36189;SDS011;22232;50.914;13.858;2022-08-19T00:36:17;30.90;;;24.05;;
36189;SDS011;22232;50.914;13.858;2022-08-19T00:38:46;28.60;;;22.88;;
36189;SDS011;22232;50.914;13.858;2022-08-19T00:41:15;32.40;;;24.38;;
36189;SDS011;22232;50.914;13.858;2022-08-19T00:44:07;28.48;;;23.23;;
36189;SDS011;22232;50.914;13.858;2022-08-19T00:46:36;27.08;;;22.00;;
36189;SDS011;22232;50.914;13.858;2022-08-19T00:49:08;30.63;;;22.98;;
36189;SDS011;22232;50.914;13.858;2022-08-19T00:51:42;31.42;;;23.15;;
36189;SDS011;22232;50.914;13.858;2022-08-19T00:54:14;30.60;;;22.48;;
36189;SDS011;22232;50.914;13.858;2022-08-19T00:56:42;27.10;;;21.90;;
36189;SDS011;22232;50.914;13.858;2022-08-19T00:59:10;26.52;;;21.27;;
36189;SDS011;22232;50.914;13.858;2022-08-19T01:01:39;29.35;;;22.45;;
36189;SDS011;22232;50.914;13.858;2022-08-19T01:04:09;27.55;;;22.45;;
36189;SDS011;22232;50.914;13.858;2022-08-19T01:06:37;27.80;;;22.17;;
36189;SDS011;22232;50.914;13.858;2022-08-19T01:09:06;28.38;;;22.27;;
36189;SDS011;22232;50.914;13.858;2022-08-19T01:11:36;30.73;;;23.23;;
36189;SDS011;22232;50.914;13.858;2022-08-19T01:14:08;30.67;;;22.77;;
36189;SDS011;22232;50.914;13.858;2022-08-19T01:16:37;29.85;;;21.35;;
36189;SDS011;22232;50.914;13.858;2022-08-19T01:19:11;29.52;;;21.83;;
36189;SDS011;22232;50.914;13.858;2022-08-19T01:21:47;29.40;;;21.85;;
36189;SDS011;22232;50.914;13.858;2022-08-19T01:24:20;26.48;;;21.77;;
36189;SDS011;22232;50.914;13.858;2022-08-19T01:26:48;25.85;;;21.65;;
36189;SDS011;22232;50.914;13.858;2022-08-19T01:29:16;28.02;;;22.48;;
36189;SDS011;22232;50.914;13.858;2022-08-19T01:31:46;31.27;;;23.15;;
36189;SDS011;22232;50.914;13.858;2022-08-19T01:34:13;27.88;;;22.85;;
36189;SDS011;22232;50.914;13.858;2022-08-19T01:36:44;28.95;;;22.83;;
36189;SDS011;22232;50.914;13.858;2022-08-19T01:39:22;28.17;;;22.15;;
36189;SDS011;22232;50.914;13.858;2022-08-19T01:41:52;28.23;;;22.05;;
36189;SDS011;22232;50.914;13.858;2022-08-19T01:44:21;28.05;;;22.55;;
36189;SDS011;22232;50.914;13.858;2022-08-19T01:46:51;31.15;;;24.23;;
36189;SDS011;22232;50.914;13.858;2022-08-19T01:49:19;26.42;;;22.80;;
36189;SDS011;22232;50.914;13.858;2022-08-19T01:51:49;26.63;;;21.40;;
36189;SDS011;22232;50.914;13.858;2022-08-19T01:54:18;27.92;;;22.25;;
36189;SDS011;22232;50.914;13.858;2022-08-19T01:56:55;28.00;;;22.98;;
36189;SDS011;22232;50.914;13.858;2022-08-19T01:59:30;28.08;;;23.33;;
36189;SDS011;22232;50.914;13.858;2022-08-19T02:02:00;33.75;;;24.70;;
36189;SDS011;22232;50.914;13.858;2022-08-19T02:04:28;28.85;;;22.63;;
36189;SDS011;22232;50.914;13.858;2022-08-19T02:06:57;29.13;;;23.58;;
36189;SDS011;22232;50.914;13.858;2022-08-19T02:09:24;30.75;;;25.50;;
36189;SDS011;22232;50.914;13.858;2022-08-19T02:11:52;27.23;;;23.45;;
36189;SDS011;22232;50.914;13.858;2022-08-19T02:14:20;32.63;;;25.30;;
36189;SDS011;22232;50.914;13.858;2022-08-19T02:16:48;34.88;;;24.90;;
36189;SDS011;22232;50.914;13.858;2022-08-19T02:19:15;33.70;;;24.90;;
36189;SDS011;22232;50.914;13.858;2022-08-19T02:21:43;28.73;;;24.13;;
36189;SDS011;22232;50.914;13.858;2022-08-19T02:24:11;29.30;;;24.60;;
36189;SDS011;22232;50.914;13.858;2022-08-19T02:26:39;26.50;;;23.13;;
36189;SDS011;22232;50.914;13.858;2022-08-19T02:29:07;30.55;;;23.73;;
36189;SDS011;22232;50.914;13.858;2022-08-19T02:31:35;32.30;;;25.63;;
36189;SDS011;22232;50.914;13.858;2022-08-19T02:34:03;32.30;;;25.23;;
36189;SDS011;22232;50.914;13.858;2022-08-19T02:36:30;32.83;;;24.50;;
36189;SDS011;22232;50.914;13.858;2022-08-19T02:38:59;27.45;;;23.98;;
36189;SDS011;22232;50.914;13.858;2022-08-19T02:41:30;34.55;;;25.92;;
36189;SDS011;22232;50.914;13.858;2022-08-19T02:44:00;36.13;;;26.17;;
36189;SDS011;22232;50.914;13.858;2022-08-19T02:46:51;33.58;;;26.55;;
36189;SDS011;22232;50.914;13.858;2022-08-19T02:49:18;40.05;;;26.85;;
36189;SDS011;22232;50.914;13.858;2022-08-19T02:51:47;38.92;;;29.23;;
36189;SDS011;22232;50.914;13.858;2022-08-19T02:54:14;36.92;;;29.10;;
36189;SDS011;22232;50.914;13.858;2022-08-19T02:56:43;42.15;;;33.28;;
36189;SDS011;22232;50.914;13.858;2022-08-19T02:59:11;43.55;;;35.50;;
36189;SDS011;22232;50.914;13.858;2022-08-19T03:01:40;42.88;;;33.17;;
36189;SDS011;22232;50.914;13.858;2022-08-19T03:04:10;40.70;;;30.98;;
36189;SDS011;22232;50.914;13.858;2022-08-19T03:06:40;38.00;;;30.05;;
36189;SDS011;22232;50.914;13.858;2022-08-19T03:09:10;40.50;;;30.83;;
36189;SDS011;22232;50.914;13.858;2022-08-19T03:11:38;39.03;;;29.58;;
36189;SDS011;22232;50.914;13.858;2022-08-19T03:14:07;35.72;;;26.98;;
36189;SDS011;22232;50.914;13.858;2022-08-19T03:16:47;33.45;;;26.17;;
36189;SDS011;22232;50.914;13.858;2022-08-19T03:19:17;31.00;;;24.80;;
36189;SDS011;22232;50.914;13.858;2022-08-19T03:21:48;38.58;;;29.67;;
36189;SDS011;22232;50.914;13.858;2022-08-19T03:24:17;32.28;;;25.63;;
36189;SDS011;22232;50.914;13.858;2022-08-19T03:26:49;31.17;;;25.95;;
36189;SDS011;22232;50.914;13.858;2022-08-19T03:29:19;41.22;;;29.17;;
36189;SDS011;22232;50.914;13.858;2022-08-19T03:31:58;30.98;;;24.90;;
36189;SDS011;22232;50.914;13.858;2022-08-19T03:34:31;29.77;;;24.47;;
36189;SDS011;22232;50.914;13.858;2022-08-19T03:37:03;30.00;;;25.33;;
36189;SDS011;22232;50.914;13.858;2022-08-19T03:39:33;35.30;;;27.50;;
36189;SDS011;22232;50.914;13.858;2022-08-19T03:42:04;35.35;;;27.17;;
36189;SDS011;22232;50.914;13.858;2022-08-19T03:44:52;36.17;;;27.75;;
36189;SDS011;22232;50.914;13.858;2022-08-19T03:47:20;32.78;;;26.13;;
36189;SDS011;22232;50.914;13.858;2022-08-19T03:49:47;37.80;;;30.05;;
36189;SDS011;22232;50.914;13.858;2022-08-19T03:52:15;36.08;;;29.10;;
36189;SDS011;22232;50.914;13.858;2022-08-19T03:54:43;38.08;;;27.80;;
36189;SDS011;22232;50.914;13.858;2022-08-19T03:57:10;35.63;;;28.02;;
36189;SDS011;22232;50.914;13.858;2022-08-19T03:59:38;31.77;;;26.08;;
36189;SDS011;22232;50.914;13.858;2022-08-19T04:02:07;32.67;;;25.63;;
36189;SDS011;22232;50.914;13.858;2022-08-19T04:04:38;35.00;;;25.00;;
36189;SDS011;22232;50.914;13.858;2022-08-19T04:07:07;35.55;;;27.10;;
36189;SDS011;22232;50.914;13.858;2022-08-19T04:09:36;38.80;;;28.27;;
36189;SDS011;22232;50.914;13.858;2022-08-19T04:12:04;36.65;;;27.27;;
36189;SDS011;22232;50.914;13.858;2022-08-19T04:14:33;34.33;;;24.20;;
36189;SDS011;22232;50.914;13.858;2022-08-19T04:17:02;28.55;;;24.17;;
36189;SDS011;22232;50.914;13.858;2022-08-19T04:19:33;31.55;;;23.45;;
36189;SDS011;22232;50.914;13.858;2022-08-19T04:22:02;32.63;;;25.40;;
36189;SDS011;22232;50.914;13.858;2022-08-19T04:24:31;38.55;;;28.60;;
36189;SDS011;22232;50.914;13.858;2022-08-19T04:27:02;38.40;;;27.35;;
36189;SDS011;22232;50.914;13.858;2022-08-19T04:29:30;37.00;;;28.00;;
36189;SDS011;22232;50.914;13.858;2022-08-19T04:31:57;40.13;;;30.42;;
36189;SDS011;22232;50.914;13.858;2022-08-19T04:34:35;45.45;;;31.02;;
36189;SDS011;22232;50.914;13.858;2022-08-19T04:37:24;38.85;;;27.75;;
36189;SDS011;22232;50.914;13.858;2022-08-19T04:40:02;38.63;;;29.42;;
36189;SDS011;22232;50.914;13.858;2022-08-19T04:42:50;36.13;;;29.77;;
36189;SDS011;22232;50.914;13.858;2022-08-19T04:45:18;42.47;;;30.88;;
36189;SDS011;22232;50.914;13.858;2022-08-19T04:47:49;42.38;;;32.05;;
36189;SDS011;22232;50.914;13.858;2022-08-19T04:50:39;38.95;;;29.38;;
36189;SDS011;22232;50.914;13.858;2022-08-19T04:53:09;40.03;;;30.55;;
36189;SDS011;22232;50.914;13.858;2022-08-19T04:55:41;40.28;;;29.30;;
36189;SDS011;22232;50.914;13.858;2022-08-19T04:58:09;42.65;;;32.60;;
36189;SDS011;22232;50.914;13.858;2022-08-19T05:00:38;48.65;;;32.53;;
36189;SDS011;22232;50.914;13.858;2022-08-19T05:03:07;34.42;;;25.85;;
36189;SDS011;22232;50.914;13.858;2022-08-19T05:05:38;37.35;;;29.08;;
36189;SDS011;22232;50.914;13.858;2022-08-19T05:08:12;40.17;;;28.20;;
36189;SDS011;22232;50.914;13.858;2022-08-19T05:10:41;41.35;;;29.83;;
36189;SDS011;22232;50.914;13.858;2022-08-19T05:13:09;41.75;;;29.13;;
36189;SDS011;22232;50.914;13.858;2022-08-19T05:15:37;40.15;;;31.35;;
36189;SDS011;22232;50.914;13.858;2022-08-19T05:18:05;39.10;;;29.75;;
36189;SDS011;22232;50.914;13.858;2022-08-19T05:20:51;42.65;;;32.00;;
36189;SDS011;22232;50.914;13.858;2022-08-19T05:23:44;44.92;;;31.67;;
36189;SDS011;22232;50.914;13.858;2022-08-19T05:26:12;42.17;;;31.05;;
36189;SDS011;22232;50.914;13.858;2022-08-19T05:28:40;40.42;;;29.50;;
36189;SDS011;22232;50.914;13.858;2022-08-19T05:31:07;42.92;;;33.17;;
36189;SDS011;22232;50.914;13.858;2022-08-19T05:33:35;41.38;;;31.17;;
36189;SDS011;22232;50.914;13.858;2022-08-19T05:36:03;40.38;;;30.90;;
36189;SDS011;22232;50.914;13.858;2022-08-19T05:38:31;38.67;;;28.00;;
36189;SDS011;22232;50.914;13.858;2022-08-19T05:40:59;39.70;;;29.85;;
36189;SDS011;22232;50.914;13.858;2022-08-19T05:43:26;44.47;;;30.17;;
36189;SDS011;22232;50.914;13.858;2022-08-19T05:45:54;38.25;;;29.80;;
36189;SDS011;22232;50.914;13.858;2022-08-19T05:48:22;36.42;;;27.77;;
36189;SDS011;22232;50.914;13.858;2022-08-19T05:50:49;43.78;;;32.10;;
36189;SDS011;22232;50.914;13.858;2022-08-19T05:53:17;37.50;;;29.52;;
36189;SDS011;22232;50.914;13.858;2022-08-19T05:55:46;35.70;;;27.83;;
36189;SDS011;22232;50.914;13.858;2022-08-19T05:58:13;41.17;;;28.77;;
36189;SDS011;22232;50.914;13.858;2022-08-19T06:00:42;43.38;;;30.27;;
36189;SDS011;22232;50.914;13.858;2022-08-19T06:03:11;38.40;;;28.80;;
36189;SDS011;22232;50.914;13.858;2022-08-19T06:05:39;34.30;;;27.25;;
36189;SDS011;22232;50.914;13.858;2022-08-19T06:08:16;38.08;;;28.70;;
36189;SDS011;22232;50.914;13.858;2022-08-19T06:10:45;36.97;;;29.25;;
36189;SDS011;22232;50.914;13.858;2022-08-19T06:13:13;41.63;;;30.05;;
36189;SDS011;22232;50.914;13.858;2022-08-19T06:15:40;40.95;;;31.50;;
36189;SDS011;22232;50.914;13.858;2022-08-19T06:18:11;38.05;;;29.38;;
36189;SDS011;22232;50.914;13.858;2022-08-19T06:20:40;39.67;;;29.98;;
36189;SDS011;22232;50.914;13.858;2022-08-19T06:23:22;38.10;;;29.05;;
36189;SDS011;22232;50.914;13.858;2022-08-19T06:25:50;35.72;;;26.80;;
36189;SDS011;22232;50.914;13.858;2022-08-19T06:28:18;37.38;;;29.60;;
36189;SDS011;22232;50.914;13.858;2022-08-19T06:30:46;34.45;;;27.83;;
36189;SDS011;22232;50.914;13.858;2022-08-19T06:33:13;35.50;;;26.25;;
36189;SDS011;22232;50.914;13.858;2022-08-19T06:35:41;37.17;;;26.98;;
36189;SDS011;22232;50.914;13.858;2022-08-19T06:38:09;31.95;;;25.20;;
36189;SDS011;22232;50.914;13.858;2022-08-19T06:40:37;32.72;;;24.50;;
36189;SDS011;22232;50.914;13.858;2022-08-19T06:43:05;28.13;;;22.13;;
36189;SDS011;22232;50.914;13.858;2022-08-19T06:45:36;28.27;;;22.25;;
36189;SDS011;22232;50.914;13.858;2022-08-19T06:48:05;32.78;;;24.42;;
36189;SDS011;22232;50.914;13.858;2022-08-19T06:50:34;28.67;;;23.88;;
36189;SDS011;22232;50.914;13.858;2022-08-19T06:53:05;27.95;;;22.92;;
36189;SDS011;22232;50.914;13.858;2022-08-19T06:55:33;28.38;;;23.63;;
36189;SDS011;22232;50.914;13.858;2022-08-19T06:58:02;28.65;;;22.30;;
36189;SDS011;22232;50.914;13.858;2022-08-19T07:00:31;32.95;;;23.20;;
36189;SDS011;22232;50.914;13.858;2022-08-19T07:02:59;29.63;;;23.25;;
36189;SDS011;22232;50.914;13.858;2022-08-19T07:05:37;25.88;;;21.80;;
36189;SDS011;22232;50.914;13.858;2022-08-19T07:08:12;26.70;;;21.80;;
36189;SDS011;22232;50.914;13.858;2022-08-19T07:10:44;26.77;;;22.15;;
36189;SDS011;22232;50.914;13.858;2022-08-19T07:13:12;30.75;;;22.05;;
36189;SDS011;22232;50.914;13.858;2022-08-19T07:15:40;28.30;;;22.33;;
36189;SDS011;22232;50.914;13.858;2022-08-19T07:18:09;27.65;;;20.70;;
36189;SDS011;22232;50.914;13.858;2022-08-19T07:20:38;26.95;;;20.95;;
36189;SDS011;22232;50.914;13.858;2022-08-19T07:23:08;25.55;;;20.55;;
36189;SDS011;22232;50.914;13.858;2022-08-19T07:25:42;25.77;;;21.23;;
36189;SDS011;22232;50.914;13.858;2022-08-19T07:28:19;28.55;;;21.35;;
36189;SDS011;22232;50.914;13.858;2022-08-19T07:30:51;24.42;;;19.23;;
36189;SDS011;22232;50.914;13.858;2022-08-19T07:33:19;25.48;;;20.35;;
36189;SDS011;22232;50.914;13.858;2022-08-19T07:35:47;24.58;;;20.00;;
36189;SDS011;22232;50.914;13.858;2022-08-19T07:38:15;22.58;;;18.95;;
36189;SDS011;22232;50.914;13.858;2022-08-19T07:40:43;24.20;;;19.65;;
36189;SDS011;22232;50.914;13.858;2022-08-19T07:43:12;24.27;;;19.08;;
36189;SDS011;22232;50.914;13.858;2022-08-19T07:45:44;23.40;;;19.50;;
36189;SDS011;22232;50.914;13.858;2022-08-19T07:48:14;26.00;;;21.00;;
36189;SDS011;22232;50.914;13.858;2022-08-19T07:50:42;22.85;;;18.88;;
36189;SDS011;22232;50.914;13.858;2022-08-19T07:53:09;21.10;;;16.33;;
36189;SDS011;22232;50.914;13.858;2022-08-19T07:55:39;26.10;;;19.73;;
36189;SDS011;22232;50.914;13.858;2022-08-19T07:58:11;24.92;;;20.02;;
36189;SDS011;22232;50.914;13.858;2022-08-19T08:00:41;22.15;;;18.63;;
36189;SDS011;22232;50.914;13.858;2022-08-19T08:03:10;24.17;;;18.67;;
36189;SDS011;22232;50.914;13.858;2022-08-19T08:05:37;26.38;;;19.15;;
36189;SDS011;22232;50.914;13.858;2022-08-19T08:08:24;24.17;;;16.60;;
36189;SDS011;22232;50.914;13.858;2022-08-19T08:11:16;23.30;;;18.23;;
36189;SDS011;22232;50.914;13.858;2022-08-19T08:13:47;27.35;;;19.25;;
36189;SDS011;22232;50.914;13.858;2022-08-19T08:16:32;24.73;;;19.67;;
36189;SDS011;22232;50.914;13.858;2022-08-19T08:19:13;26.13;;;18.90;;
36189;SDS011;22232;50.914;13.858;2022-08-19T08:21:52;24.30;;;19.60;;
36189;SDS011;22232;50.914;13.858;2022-08-19T08:24:22;24.27;;;19.27;;
36189;SDS011;22232;50.914;13.858;2022-08-19T08:26:55;23.58;;;19.08;;
36189;SDS011;22232;50.914;13.858;2022-08-19T08:29:24;25.45;;;17.58;;
36189;SDS011;22232;50.914;13.858;2022-08-19T08:32:01;23.13;;;18.38;;
36189;SDS011;22232;50.914;13.858;2022-08-19T08:34:41;22.98;;;17.45;;
36189;SDS011;22232;50.914;13.858;2022-08-19T08:37:09;21.77;;;17.40;;
36189;SDS011;22232;50.914;13.858;2022-08-19T08:39:37;23.80;;;18.52;;
36189;SDS011;22232;50.914;13.858;2022-08-19T08:42:11;18.38;;;15.52;;
36189;SDS011;22232;50.914;13.858;2022-08-19T08:45:03;21.27;;;18.00;;
36189;SDS011;22232;50.914;13.858;2022-08-19T08:47:44;20.17;;;16.08;;
36189;SDS011;22232;50.914;13.858;2022-08-19T08:53:16;20.65;;;16.80;;
36189;SDS011;22232;50.914;13.858;2022-08-19T08:55:58;19.98;;;15.27;;
36189;SDS011;22232;50.914;13.858;2022-08-19T08:58:32;21.45;;;16.77;;
36189;SDS011;22232;50.914;13.858;2022-08-19T09:01:09;18.65;;;15.55;;
36189;SDS011;22232;50.914;13.858;2022-08-19T09:03:39;20.60;;;16.85;;
36189;SDS011;22232;50.914;13.858;2022-08-19T09:08:54;22.73;;;17.30;;
36189;SDS011;22232;50.914;13.858;2022-08-19T09:17:18;25.45;;;19.67;;
36189;SDS011;22232;50.914;13.858;2022-08-19T09:19:53;29.52;;;20.48;;
36189;SDS011;22232;50.914;13.858;2022-08-19T09:22:23;26.38;;;19.38;;
36189;SDS011;22232;50.914;13.858;2022-08-19T09:24:53;27.02;;;19.67;;
36189;SDS011;22232;50.914;13.858;2022-08-19T09:27:22;22.98;;;18.05;;
36189;SDS011;22232;50.914;13.858;2022-08-19T09:30:12;23.30;;;17.13;;
36189;SDS011;22232;50.914;13.858;2022-08-19T09:32:43;20.67;;;15.45;;
36189;SDS011;22232;50.914;13.858;2022-08-19T09:35:12;15.73;;;12.73;;
36189;SDS011;22232;50.914;13.858;2022-08-19T09:37:42;19.63;;;12.65;;
36189;SDS011;22232;50.914;13.858;2022-08-19T09:40:11;15.52;;;12.63;;
36189;SDS011;22232;50.914;13.858;2022-08-19T09:42:39;15.27;;;13.18;;
36189;SDS011;22232;50.914;13.858;2022-08-19T09:45:17;15.60;;;12.55;;
36189;SDS011;22232;50.914;13.858;2022-08-19T09:47:49;13.05;;;10.82;;
36189;SDS011;22232;50.914;13.858;2022-08-19T09:50:21;14.45;;;11.32;;
36189;SDS011;22232;50.914;13.858;2022-08-19T09:52:51;12.45;;;11.13;;
36189;SDS011;22232;50.914;13.858;2022-08-19T09:55:24;14.48;;;12.77;;
36189;SDS011;22232;50.914;13.858;2022-08-19T09:58:01;17.55;;;13.68;;
36189;SDS011;22232;50.914;13.858;2022-08-19T10:00:29;15.73;;;12.68;;
36189;SDS011;22232;50.914;13.858;2022-08-19T10:02:58;15.70;;;12.50;;
36189;SDS011;22232;50.914;13.858;2022-08-19T10:05:27;14.57;;;11.70;;
36189;SDS011;22232;50.914;13.858;2022-08-19T10:08:15;14.85;;;12.00;;
36189;SDS011;22232;50.914;13.858;2022-08-19T10:10:46;12.68;;;11.35;;
36189;SDS011;22232;50.914;13.858;2022-08-19T10:13:16;13.68;;;11.45;;
36189;SDS011;22232;50.914;13.858;2022-08-19T10:15:49;11.73;;;10.20;;
36189;SDS011;22232;50.914;13.858;2022-08-19T10:18:18;11.93;;;10.18;;
36189;SDS011;22232;50.914;13.858;2022-08-19T10:20:48;12.52;;;10.10;;
36189;SDS011;22232;50.914;13.858;2022-08-19T10:23:20;11.18;;;9.85;;
36189;SDS011;22232;50.914;13.858;2022-08-19T10:25:48;10.70;;;9.57;;
36189;SDS011;22232;50.914;13.858;2022-08-19T10:28:16;11.35;;;9.15;;
36189;SDS011;22232;50.914;13.858;2022-08-19T10:30:45;9.68;;;8.68;;
36189;SDS011;22232;50.914;13.858;2022-08-19T10:33:14;10.85;;;9.75;;
36189;SDS011;22232;50.914;13.858;2022-08-19T10:36:23;11.15;;;9.43;;
36189;SDS011;22232;50.914;13.858;2022-08-19T10:38:52;9.45;;;8.32;;
36189;SDS011;22232;50.914;13.858;2022-08-19T10:41:25;9.25;;;8.20;;
36189;SDS011;22232;50.914;13.858;2022-08-19T10:44:00;7.63;;;6.80;;
36189;SDS011;22232;50.914;13.858;2022-08-19T10:46:31;8.48;;;7.60;;
36189;SDS011;22232;50.914;13.858;2022-08-19T10:49:01;8.23;;;7.40;;
36189;SDS011;22232;50.914;13.858;2022-08-19T10:51:30;10.80;;;7.60;;
36189;SDS011;22232;50.914;13.858;2022-08-19T10:54:17;7.65;;;6.53;;
36189;SDS011;22232;50.914;13.858;2022-08-19T10:56:59;7.07;;;6.13;;
36189;SDS011;22232;50.914;13.858;2022-08-19T10:59:28;7.10;;;6.40;;
36189;SDS011;22232;50.914;13.858;2022-08-19T11:02:04;6.72;;;6.13;;
36189;SDS011;22232;50.914;13.858;2022-08-19T11:04:33;6.68;;;6.07;;
36189;SDS011;22232;50.914;13.858;2022-08-19T11:07:02;6.15;;;5.55;;
36189;SDS011;22232;50.914;13.858;2022-08-19T11:09:31;6.68;;;5.85;;
36189;SDS011;22232;50.914;13.858;2022-08-19T11:12:05;8.68;;;5.47;;
36189;SDS011;22232;50.914;13.858;2022-08-19T11:14:33;7.30;;;5.72;;
36189;SDS011;22232;50.914;13.858;2022-08-19T11:17:02;5.70;;;5.10;;
36189;SDS011;22232;50.914;13.858;2022-08-19T11:19:31;6.68;;;5.25;;
36189;SDS011;22232;50.914;13.858;2022-08-19T11:21:59;5.28;;;4.78;;
36189;SDS011;22232;50.914;13.858;2022-08-19T11:24:30;5.45;;;4.95;;
36189;SDS011;22232;50.914;13.858;2022-08-19T11:27:03;5.30;;;4.80;;
36189;SDS011;22232;50.914;13.858;2022-08-19T11:29:37;5.47;;;4.97;;
36189;SDS011;22232;50.914;13.858;2022-08-19T11:32:07;4.60;;;4.20;;
36189;SDS011;22232;50.914;13.858;2022-08-19T11:34:36;4.22;;;3.83;;
36189;SDS011;22232;50.914;13.858;2022-08-19T11:37:04;5.22;;;3.97;;
36189;SDS011;22232;50.914;13.858;2022-08-19T11:39:33;4.10;;;3.80;;
36189;SDS011;22232;50.914;13.858;2022-08-19T11:42:04;4.20;;;3.80;;
36189;SDS011;22232;50.914;13.858;2022-08-19T11:44:53;4.50;;;4.07;;
36189;SDS011;22232;50.914;13.858;2022-08-19T11:47:21;4.00;;;3.58;;
36189;SDS011;22232;50.914;13.858;2022-08-19T11:49:49;3.70;;;3.40;;
36189;SDS011;22232;50.914;13.858;2022-08-19T11:52:17;5.20;;;3.38;;
36189;SDS011;22232;50.914;13.858;2022-08-19T11:54:44;3.70;;;3.40;;
36189;SDS011;22232;50.914;13.858;2022-08-19T11:57:12;3.95;;;3.65;;
36189;SDS011;22232;50.914;13.858;2022-08-19T11:59:42;4.43;;;4.03;;
36189;SDS011;22232;50.914;13.858;2022-08-19T12:02:14;4.05;;;3.75;;
36189;SDS011;22232;50.914;13.858;2022-08-19T12:04:42;5.20;;;4.70;;
36189;SDS011;22232;50.914;13.858;2022-08-19T12:07:10;5.82;;;5.00;;
36189;SDS011;22232;50.914;13.858;2022-08-19T12:09:38;4.78;;;4.38;;
36189;SDS011;22232;50.914;13.858;2022-08-19T12:12:09;5.55;;;5.05;;
36189;SDS011;22232;50.914;13.858;2022-08-19T12:14:37;5.10;;;4.70;;
36189;SDS011;22232;50.914;13.858;2022-08-19T12:17:04;6.88;;;5.13;;
36189;SDS011;22232;50.914;13.858;2022-08-19T12:19:35;4.72;;;4.32;;
36189;SDS011;22232;50.914;13.858;2022-08-19T12:22:04;5.43;;;4.93;;
36189;SDS011;22232;50.914;13.858;2022-08-19T12:24:33;4.28;;;3.50;;
36189;SDS011;22232;50.914;13.858;2022-08-19T12:27:00;4.53;;;4.13;;
36189;SDS011;22232;50.914;13.858;2022-08-19T12:29:29;5.85;;;4.68;;
36189;SDS011;22232;50.914;13.858;2022-08-19T12:31:57;4.88;;;4.47;;
36189;SDS011;22232;50.914;13.858;2022-08-19T12:34:30;4.82;;;4.32;;
36189;SDS011;22232;50.914;13.858;2022-08-19T12:37:00;4.88;;;4.43;;
36189;SDS011;22232;50.914;13.858;2022-08-19T12:39:33;4.35;;;3.95;;
36189;SDS011;22232;50.914;13.858;2022-08-19T12:42:03;4.60;;;4.00;;
36189;SDS011;22232;50.914;13.858;2022-08-19T12:44:31;4.20;;;3.80;;
36189;SDS011;22232;50.914;13.858;2022-08-19T12:47:00;4.00;;;3.70;;
36189;SDS011;22232;50.914;13.858;2022-08-19T12:49:30;3.75;;;3.40;;
36189;SDS011;22232;50.914;13.858;2022-08-19T12:52:21;3.50;;;3.20;;
36189;SDS011;22232;50.914;13.858;2022-08-19T12:54:54;3.80;;;3.50;;
36189;SDS011;22232;50.914;13.858;2022-08-19T12:57:23;4.78;;;3.33;;
36189;SDS011;22232;50.914;13.858;2022-08-19T13:00:04;5.47;;;4.95;;
36189;SDS011;22232;50.914;13.858;2022-08-19T13:02:34;9.88;;;7.85;;
36189;SDS011;22232;50.914;13.858;2022-08-19T13:05:05;15.38;;;12.73;;
36189;SDS011;22232;50.914;13.858;2022-08-19T13:07:36;16.13;;;12.43;;
36189;SDS011;22232;50.914;13.858;2022-08-19T13:10:06;15.00;;;13.48;;
36189;SDS011;22232;50.914;13.858;2022-08-19T13:12:35;19.48;;;15.05;;
36189;SDS011;22232;50.914;13.858;2022-08-19T13:15:03;16.80;;;15.00;;
36189;SDS011;22232;50.914;13.858;2022-08-19T13:17:37;19.85;;;17.48;;
36189;SDS011;22232;50.914;13.858;2022-08-19T13:20:07;22.60;;;19.33;;
36189;SDS011;22232;50.914;13.858;2022-08-19T13:22:36;22.00;;;19.58;;
36189;SDS011;22232;50.914;13.858;2022-08-19T13:25:05;25.02;;;21.30;;
36189;SDS011;22232;50.914;13.858;2022-08-19T13:27:34;26.02;;;20.90;;
36189;SDS011;22232;50.914;13.858;2022-08-19T13:30:03;27.33;;;21.50;;
36189;SDS011;22232;50.914;13.858;2022-08-19T13:32:51;23.63;;;20.02;;
36189;SDS011;22232;50.914;13.858;2022-08-19T13:35:44;25.08;;;21.73;;
36189;SDS011;22232;50.914;13.858;2022-08-19T13:38:24;22.58;;;19.50;;
36189;SDS011;22232;50.914;13.858;2022-08-19T13:40:52;21.33;;;18.05;;
36189;SDS011;22232;50.914;13.858;2022-08-19T13:43:21;26.40;;;21.00;;
36189;SDS011;22232;50.914;13.858;2022-08-19T13:45:53;26.13;;;22.05;;
36189;SDS011;22232;50.914;13.858;2022-08-19T13:48:25;23.10;;;19.13;;
36189;SDS011;22232;50.914;13.858;2022-08-19T13:50:54;26.05;;;22.20;;
36189;SDS011;22232;50.914;13.858;2022-08-19T13:53:21;25.13;;;20.17;;
36189;SDS011;22232;50.914;13.858;2022-08-19T13:55:49;25.60;;;21.15;;
36189;SDS011;22232;50.914;13.858;2022-08-19T13:58:18;28.95;;;22.38;;
36189;SDS011;22232;50.914;13.858;2022-08-19T14:00:45;29.52;;;22.27;;
36189;SDS011;22232;50.914;13.858;2022-08-19T14:03:14;29.77;;;22.65;;
36189;SDS011;22232;50.914;13.858;2022-08-19T14:05:41;27.77;;;21.95;;
36189;SDS011;22232;50.914;13.858;2022-08-19T14:08:09;28.60;;;23.20;;
36189;SDS011;22232;50.914;13.858;2022-08-19T14:10:36;27.67;;;22.33;;
36189;SDS011;22232;50.914;13.858;2022-08-19T14:13:04;33.25;;;24.50;;
36189;SDS011;22232;50.914;13.858;2022-08-19T14:15:32;29.23;;;24.02;;
36189;SDS011;22232;50.914;13.858;2022-08-19T14:17:59;30.02;;;23.83;;
36189;SDS011;22232;50.914;13.858;2022-08-19T14:20:28;28.05;;;23.45;;
36189;SDS011;22232;50.914;13.858;2022-08-19T14:22:56;31.25;;;24.60;;
36189;SDS011;22232;50.914;13.858;2022-08-19T14:25:24;29.50;;;22.73;;
36189;SDS011;22232;50.914;13.858;2022-08-19T14:27:53;25.08;;;20.17;;
36189;SDS011;22232;50.914;13.858;2022-08-19T14:30:24;21.05;;;18.08;;
36189;SDS011;22232;50.914;13.858;2022-08-19T14:32:58;24.48;;;20.48;;
36189;SDS011;22232;50.914;13.858;2022-08-19T14:35:27;27.58;;;21.27;;
36189;SDS011;22232;50.914;13.858;2022-08-19T14:38:04;32.05;;;24.65;;
36189;SDS011;22232;50.914;13.858;2022-08-19T14:40:33;27.50;;;22.08;;
36189;SDS011;22232;50.914;13.858;2022-08-19T14:43:02;34.22;;;27.00;;
36189;SDS011;22232;50.914;13.858;2022-08-19T14:45:32;41.45;;;30.98;;
36189;SDS011;22232;50.914;13.858;2022-08-19T14:48:06;44.15;;;31.48;;